• Join FlightAware (Why Join?)
  • Login
  • US Flag 
09:38AM EDT


 

Airport Tracker/Info


-or-


 

Live Flight TrackerFlight Track Log ✈ EJA831 ✈ 07-Dec-2013 ✈ KADS - KDWH

Flight Track Log - Related Links

Times and Time Zones

All times are in EST time to prevent confusion due to time zone crossing. See the EJA831 flight status page for this flight to view local times or setup timezone preferences in your user account.

Time Position Orientation Groundspeed Altitude Reporting Facility
EST Latitude Longitude Course Direction KTS MPH feet Rate Location/Type
01:31PM 32.9833 -96.8333 320° Northwest 165 190 1,200  Level Dallas / Fort Worth TRACON
01:32PM 33.0167 -96.8667 320° Northwest 199 229 1,900 900 Climbing Dallas / Fort Worth TRACON
01:33PM 33.0667 -96.8833 344° North 194 223 2,800 2,100 Climbing Dallas / Fort Worth TRACON
01:34PM 33.1000 -96.9333 309° West 251 289 5,700 2,940 Climbing Dallas / Fort Worth TRACON
01:36PM 33.0650 -97.0356 248° West 239 275 11,300 2,940 Climbing Fort Worth Center
01:37PM 32.9981 -97.0192 168° South 244 281 14,200 3,000 Climbing Fort Worth Center
01:38PM 32.9222 -96.9967 166° South 260 299 17,500 2,280 Climbing Fort Worth Center
01:39PM 32.8383 -96.9839 173° South 305 351 18,900 1,500 Climbing Fort Worth Center
01:40PM 32.7481 -96.9564 166° South 332 382 20,600 1,020 Climbing Fort Worth Center
01:41PM 32.6503 -96.9269 166° South 356 410 21,000 180 Climbing Fort Worth Center
01:42PM 32.5428 -96.8950 166° South 367 422 21,000  Level Fort Worth Center
01:43PM 32.4458 -96.8656 166° South 355 409 21,000  Level Fort Worth Center
01:44PM 32.3458 -96.8344 165° South 368 423 21,000  Level Fort Worth Center
01:45PM 32.2467 -96.8022 165° South 369 425 21,000  Level Fort Worth Center
01:46PM 32.1508 -96.7647 162° South 373 429 21,000  Level Fort Worth Center
01:47PM 32.0531 -96.7283 162° South 370 426 21,000  Level Fort Worth Center
01:48PM 31.9583 -96.6917 162° South 361 415 21,000  Level Fort Worth Center
01:49PM 31.8581 -96.6539 162° South 366 421 21,000  Level Houston Center
01:50PM 31.7594 -96.6119 160° South 369 425 21,000  Level Houston Center
01:51PM 31.6608 -96.5725 161° South 369 425 21,000  Level Houston Center
01:52PM 31.5642 -96.5325 161° South 365 420 21,000  Level Houston Center
01:53PM 31.4667 -96.4944 162° South 365 420 21,000  Level Houston Center
01:54PM 31.3694 -96.4531 160° South 367 422 21,000  Level Houston Center
01:55PM 31.2753 -96.3908 151° Southeast 380 437 21,000  Level Houston Center
01:56PM 31.1806 -96.3300 151° Southeast 383 441 21,000  Level Houston Center
01:57PM 31.0686 -96.2581 151° Southeast 387 445 21,000 -300 Level Houston Center
01:58PM 30.9744 -96.1964 151° Southeast 385 443 20,400 -1,320 Descending Houston Center
01:59PM 30.8828 -96.1378 151° Southeast 374 430 18,400 -1,980 Descending Houston Center
02:00PM 30.7933 -96.0806 151° Southeast 364 419 16,400 -1,980 Descending Houston Center
02:01PM 30.7464 -96.0500 151° Southeast 360 414 15,400 -1,680 Descending Houston Center
02:01PM 30.7125 -96.0281 151° Southeast 363 418 14,700 -1,980 Descending Houston Center
02:02PM 30.6733 -96.0050 153° Southeast 351 404 13,800 -1,920 Descending Houston Center
02:02PM 30.6286 -95.9747 150° Southeast 344 396 12,800 -1,680 Descending Houston Center
02:03PM 30.5933 -95.9533 152° Southeast 318 366 12,100 -1,560 Descending Houston Center
02:03PM 30.5558 -95.9286 150° Southeast 302 348 11,200 -1,500 Descending Houston Center
02:04PM 30.5269 -95.9150 158° South 252 290 10,600 -1,380 Descending Houston Center
02:04PM 30.4911 -95.8972 157° South 257 296 9,800 -1,740 Descending Houston Center
02:05PM 30.4483 -95.8806 161° South 275 316 8,700 -2,400 Descending Houston Center
02:05PM 30.4064 -95.8597 157° South 270 311 7,400 -1,980 Descending Houston Center
02:06PM 30.3850 -95.8517 162° South 266 306 6,900 -1,620 Descending Houston Center
02:07PM 30.3131 -95.8211 160° South 256 295 5,200 -1,500 Descending Houston Center
02:07PM 30.2725 -95.8014 157° South 260 299 4,300 -1,320 Descending Houston Center
02:08PM 30.2411 -95.7886 161° South 261 300 3,900 -840 Descending Houston Center
02:08PM 30.2064 -95.7717 157° South 259 298 3,500 -840 Descending Houston Center
02:09PM 30.1800 -95.7617 162° South 227 261 3,100 -540 Descending Houston Center
02:09PM 30.1497 -95.7469 157° South 237 273 3,000 -120 Descending Houston Center
02:10PM 30.1253 -95.7367 160° South 203 234 3,000  Level Houston Center
02:10PM 30.0961 -95.7231 158° South 215 247 3,000  Level Houston Center
02:11PM 30.0619 -95.7103 162° South 211 243 3,000  Level Houston Center
02:12PM 30.0419 -95.6983 153° Southeast 211 243 3,000 -120 Level Houston Center
02:12PM 30.0136 -95.6872 161° South 222 255 2,900 -780 Descending Houston Center
02:13PM 29.9700 -95.6675 159° South 219 252 2,200 -900 Descending Houston Center
02:13PM 29.9550 -95.6628 165° South 244 281 2,100 -240 Descending Houston Center
02:14PM 29.9086 -95.6417 158° South 229 264 2,000 -120 Descending Houston Center
02:14PM 29.8914 -95.6339 159° South 196 226 2,000  Level Houston Center
02:15PM 29.8650 -95.6086 140° Southeast 215 247 2,000  Level Houston Center
02:15PM 29.8642 -95.5867 93° East 199 229 2,000  Level Houston Center
02:16PM 29.8697 -95.5483 81° East 200 230 2,000 -240 Level Houston Center
02:16PM 29.8783 -95.5344 54° Northeast 173 199 1,800 -180 Descending Houston Center
02:17PM 29.9222 -95.5339 North 162 186 1,800  Level Houston Center
02:18PM 29.9575 -95.5378 355° North 175 201 1,800  Level Houston Center
02:18PM 29.9692 -95.5406 348° North 166 191 1,800 -420 Level Houston Center
02:19PM 29.9967 -95.5425 356° North 154 177 1,400 -600 Descending Houston Center
02:19PM 30.0033 -95.5461 335° Northwest 103 119 1,200 -720 Descending Houston Center
02:20PM 30.0297 -95.5489 355° North 118 136 700 -600 Descending Houston Center
02:20PM 30.0331 -95.5497 348° North 102 117 600 -120 Descending Houston Center
02:21PM 30.0594 -95.5531 354° North 115 132 600  Level Houston Center